メインページ
METAR-TAF:

METAR-TAF

空港 :

キングストン・ノーマン・ロジャース空港

キングストン, オンタリオ州, カナダ

緯度: 44-13N, 経度: 076-36W, 海抜: 93m

現時点の気象観測

当レポートは38分前の02:00(UTC)に作成
北/北西の風 3kt
気温 -9°C
湿度 92%
気圧 1022 hPa
視程: 24.1km
高度3200ftの雲は散在している
高度8600ftの千切れ雲あり

METAR: CYGK 070200Z 34003KT 15SM SCT032 BKN086 M09/M10 A3019 RMK SC3AC3 SLP230

時間: 21:38 (02:38 UTC)

予報

当レポートは58分前の01:40(UTC)に作成
予報は07日の 02時(UTC)から 07日の 04時(UTC)まで有効
北/北西の風 5kt
視程: 10km
高度3000ftの雲はほとんどない
高度9000ftの雲は散在している
07日の 02時(UTC)から 07日の 04時(UTC)まで一時的に
高度2000ftの千切れ雲あり
高度6000ftの千切れ雲あり

TAF: CYGK 070140Z 0702/0704 33005KT P6SM FEW030 SCT090 TEMPO 0702/0704 BKN020 BKN060 RMK NXT FCST WILL BE ISSUED AT 071245Z

4,000以上の空港の気象観測と天気予報(METAR報とTAF報)

利用可能な観測所は地図上に黄色い丸と赤い丸で示す。

丸の上にカーソルを重ねると観測所名を参照できる。

次にクリックすると気象観測と天気予報を参照できる。

マップの切り替え:黒色「×」印の緑ボタンをクリックして拡大、「-」印の緑ボタンをクリックして縮小、緑色の三角印をクリックして隣りの地図に切り替え


METAR-TAF: